Time;durP1;ratioP1;P1;durP2;ratioP2;P2;SDS_P1;SDS_P2;PMS_P1;PMS_P2;Temp;Humidity;BMP_temperature;BMP_pressure;BME280_temperature;BME280_humidity;BME280_pressure;Samples;Min_cycle;Max_cycle;Signal;HPM_P1;HPM_P2
2022/04/04 00:02:04;;;;;;;82.63;47.42;;;;;;;;;;4993742;28;20508;-62
2022/04/04 00:04:30;;;;;;;80.55;45.85;;;;;;;;;;4994141;28;20217;-60
2022/04/04 00:06:59;;;;;;;67.38;42.42;;;;;;;;;;4994064;28;20269;-61
2022/04/04 00:09:25;;;;;;;71.60;42.22;;;;;;;;;;4993987;28;20201;-61
2022/04/04 00:11:51;;;;;;;73.47;43.63;;;;;;;;;;4993445;28;20197;-61
2022/04/04 00:14:17;;;;;;;64.90;42.60;;;;;;;;;;4993720;28;20429;-60
2022/04/04 00:16:43;;;;;;;61.17;41.23;;;;;;;;;;4993806;28;20178;-61
2022/04/04 00:19:09;;;;;;;63.90;44.63;;;;;;;;;;4993745;28;20826;-61
2022/04/04 00:21:36;;;;;;;62.70;43.10;;;;;;;;;;4993418;28;20429;-61
2022/04/04 00:24:01;;;;;;;60.70;41.97;;;;;;;;;;4993616;28;20492;-59
2022/04/04 00:26:27;;;;;;;63.80;42.33;;;;;;;;;;4993479;28;20622;-60
2022/04/04 00:28:53;;;;;;;63.40;41.50;;;;;;;;;;4993590;28;20405;-61
2022/04/04 00:31:19;;;;;;;61.47;40.30;;;;;;;;;;4993057;28;20467;-60
2022/04/04 00:33:45;;;;;;;64.47;40.13;;;;;;;;;;4993499;28;20420;-61
2022/04/04 00:36:11;;;;;;;62.93;41.30;;;;;;;;;;4993405;28;20414;-60
2022/04/04 00:38:37;;;;;;;52.13;41.50;;;;;;;;;;4993455;28;20418;-61
2022/04/04 00:41:07;;;;;;;60.90;40.10;;;;;;;;;;4992857;28;20920;-61
2022/04/04 00:43:33;;;;;;;60.30;40.83;;;;;;;;;;4993407;28;20504;-61
2022/04/04 00:46:02;;;;;;;53.40;38.93;;;;;;;;;;4993094;28;20262;-60
2022/04/04 00:48:28;;;;;;;48.60;37.08;;;;;;;;;;4993224;28;20406;-61
2022/04/04 00:50:54;;;;;;;52.00;38.37;;;;;;;;;;4992878;28;20586;-60
2022/04/04 00:53:21;;;;;;;53.30;37.73;;;;;;;;;;4992970;28;20425;-61
2022/04/04 00:55:47;;;;;;;52.40;39.45;;;;;;;;;;4992883;28;20410;-59
2022/04/04 00:58:14;;;;;;;55.80;39.13;;;;;;;;;;4993003;28;20236;-61
2022/04/04 01:00:41;;;;;;;58.92;39.45;;;;;;;;;;4992679;28;20167;-60
2022/04/04 01:03:07;;;;;;;57.40;41.13;;;;;;;;;;4992750;28;20198;-61
2022/04/04 01:05:33;;;;;;;55.90;37.92;;;;;;;;;;4992785;28;20232;-60
2022/04/04 01:07:59;;;;;;;59.33;39.83;;;;;;;;;;4992820;28;20186;-63
2022/04/04 01:10:25;;;;;;;61.40;44.23;;;;;;;;;;4992715;28;20174;-61
2022/04/04 01:12:54;;;;;;;62.10;41.80;;;;;;;;;;4992304;28;20422;-61
2022/04/04 01:15:22;;;;;;;61.88;41.35;;;;;;;;;;4992683;28;20479;-62
2022/04/04 01:17:48;;;;;;;58.45;40.17;;;;;;;;;;4975261;28;20221;-62
2022/04/04 01:20:14;;;;;;;63.70;44.42;;;;;;;;;;4992425;28;20210;-62
2022/04/04 01:22:41;;;;;;;58.33;39.25;;;;;;;;;;4992489;28;20225;-62
2022/04/04 01:25:08;;;;;;;61.78;41.13;;;;;;;;;;4992446;28;20201;-61
2022/04/04 01:27:34;;;;;;;59.05;41.30;;;;;;;;;;4992401;28;20649;-60
2022/04/04 01:30:01;;;;;;;61.40;40.80;;;;;;;;;;4992443;28;20179;-60
2022/04/04 01:32:27;;;;;;;59.42;40.83;;;;;;;;;;4992085;28;20502;-61
2022/04/04 01:34:53;;;;;;;62.53;41.88;;;;;;;;;;4992388;28;20204;-61
2022/04/04 01:37:19;;;;;;;63.97;41.60;;;;;;;;;;4992310;28;20609;-62
2022/04/04 01:39:45;;;;;;;60.70;40.40;;;;;;;;;;4992336;28;20418;-62
2022/04/04 01:42:11;;;;;;;65.17;42.03;;;;;;;;;;4991875;28;20521;-62
2022/04/04 01:44:37;;;;;;;64.00;40.10;;;;;;;;;;4992270;28;20507;-61
2022/04/04 01:47:03;;;;;;;74.50;45.20;;;;;;;;;;4992217;28;20445;-61
2022/04/04 01:49:29;;;;;;;70.75;42.97;;;;;;;;;;4992183;28;20406;-61
2022/04/04 01:51:55;;;;;;;69.80;41.10;;;;;;;;;;4991976;28;20201;-61
2022/04/04 01:54:21;;;;;;;70.77;43.40;;;;;;;;;;4992069;28;20409;-61
2022/04/04 01:56:47;;;;;;;73.38;44.30;;;;;;;;;;4991523;28;20413;-61
2022/04/04 01:59:13;;;;;;;71.68;43.05;;;;;;;;;;4991725;28;20177;-61
2022/04/04 02:01:40;;;;;;;75.47;42.85;;;;;;;;;;4991848;28;20224;-61
2022/04/04 02:04:09;;;;;;;69.32;42.95;;;;;;;;;;4991931;28;20795;-61
2022/04/04 02:06:35;;;;;;;74.53;44.28;;;;;;;;;;4991986;28;20249;-60
2022/04/04 02:09:01;;;;;;;68.50;41.00;;;;;;;;;;4992147;28;20261;-60
2022/04/04 02:11:27;;;;;;;69.13;41.30;;;;;;;;;;4991694;28;20422;-61
2022/04/04 02:13:53;;;;;;;63.55;40.83;;;;;;;;;;4992016;28;20830;-60
2022/04/04 02:16:19;;;;;;;64.55;40.00;;;;;;;;;;4995434;28;20182;-61
2022/04/04 02:18:45;;;;;;;71.63;43.47;;;;;;;;;;4992149;28;20553;-60
2022/04/04 02:21:11;;;;;;;68.77;43.60;;;;;;;;;;4991610;28;20488;-62
2022/04/04 02:23:37;;;;;;;66.00;41.90;;;;;;;;;;4991783;28;20397;-60
2022/04/04 02:26:03;;;;;;;64.77;40.70;;;;;;;;;;4991907;28;20273;-60
2022/04/04 02:28:30;;;;;;;65.78;40.83;;;;;;;;;;4991806;28;20959;-61
2022/04/04 02:30:56;;;;;;;69.40;41.30;;;;;;;;;;4991545;28;20199;-60
2022/04/04 02:33:22;;;;;;;71.88;43.72;;;;;;;;;;5014382;22;20230;-58
2022/04/04 02:35:52;;;;;;;71.57;44.10;;;;;;;;;;4991369;28;20253;-57
2022/04/04 02:38:19;;;;;;;65.63;40.90;;;;;;;;;;4991671;28;20178;-58
2022/04/04 02:40:45;;;;;;;66.65;42.10;;;;;;;;;;4991598;28;20545;-58
2022/04/04 02:43:11;;;;;;;63.97;39.83;;;;;;;;;;4991670;28;20198;-57
2022/04/04 02:45:37;;;;;;;66.25;42.00;;;;;;;;;;4991500;28;20206;-59
2022/04/04 02:48:03;;;;;;;60.10;40.33;;;;;;;;;;4991467;28;20186;-59
2022/04/04 02:50:29;;;;;;;64.10;40.95;;;;;;;;;;4991204;28;20225;-60
2022/04/04 02:52:55;;;;;;;63.05;39.08;;;;;;;;;;4991434;28;20289;-57
2022/04/04 02:58:06;;;;;;;67.68;41.25;;;;;;;;;;4991895;28;20621;-59
2022/04/04 03:00:32;;;;;;;66.50;41.05;;;;;;;;;;4991298;28;20657;-59
2022/04/04 03:02:58;;;;;;;68.80;42.80;;;;;;;;;;4991279;28;20201;-59
2022/04/04 03:05:24;;;;;;;63.25;40.25;;;;;;;;;;4991577;28;20551;-60
2022/04/04 03:07:51;;;;;;;68.20;41.45;;;;;;;;;;4992162;28;20197;-58
2022/04/04 03:10:17;;;;;;;74.50;48.00;;;;;;;;;;4994869;28;20193;-58
2022/04/04 03:12:48;;;;;;;67.22;40.50;;;;;;;;;;4995006;28;20201;-58
2022/04/04 03:15:17;;;;;;;63.78;38.65;;;;;;;;;;4994924;28;20187;-57
2022/04/04 03:17:43;;;;;;;70.05;44.00;;;;;;;;;;4994709;28;20181;-58
2022/04/04 03:20:10;;;;;;;64.35;41.65;;;;;;;;;;4994426;28;20265;-58
2022/04/04 03:22:37;;;;;;;64.28;41.03;;;;;;;;;;4994759;28;20198;-59
2022/04/04 03:25:03;;;;;;;66.15;40.55;;;;;;;;;;4994814;28;20573;-60
2022/04/04 03:27:29;;;;;;;66.05;41.17;;;;;;;;;;4994700;28;20274;-58
2022/04/04 03:29:55;;;;;;;64.93;40.17;;;;;;;;;;4994608;28;20182;-59
2022/04/04 03:32:21;;;;;;;63.20;39.90;;;;;;;;;;4994280;28;20503;-60
2022/04/04 03:34:47;;;;;;;62.10;39.15;;;;;;;;;;4994591;28;20410;-59
2022/04/04 03:37:13;;;;;;;66.25;40.95;;;;;;;;;;4994704;28;20239;-57
2022/04/04 03:39:39;;;;;;;65.60;40.47;;;;;;;;;;4994617;28;20647;-59
2022/04/04 03:42:05;;;;;;;65.00;39.93;;;;;;;;;;4994266;28;20194;-59
2022/04/04 03:44:31;;;;;;;66.90;40.88;;;;;;;;;;4994270;28;20453;-59
2022/04/04 03:46:57;;;;;;;69.53;43.73;;;;;;;;;;4994391;28;20289;-58
2022/04/04 03:49:23;;;;;;;66.93;40.63;;;;;;;;;;4994319;28;20926;-59
2022/04/04 03:51:49;;;;;;;61.20;38.60;;;;;;;;;;4993945;28;20425;-59
2022/04/04 03:54:15;;;;;;;69.18;42.38;;;;;;;;;;4994287;28;20438;-59
2022/04/04 03:56:41;;;;;;;65.30;39.35;;;;;;;;;;4994244;28;20185;-60
2022/04/04 03:59:07;;;;;;;66.07;39.93;;;;;;;;;;4994069;28;20182;-59
2022/04/04 04:01:34;;;;;;;65.13;39.00;;;;;;;;;;4993846;28;20501;-59
2022/04/04 04:04:00;;;;;;;70.80;42.42;;;;;;;;;;4994167;28;20464;-59
2022/04/04 04:06:26;;;;;;;72.50;42.30;;;;;;;;;;4993941;28;20178;-59
2022/04/04 04:08:52;;;;;;;69.73;40.23;;;;;;;;;;4994040;28;20437;-60
2022/04/04 04:11:18;;;;;;;66.97;40.73;;;;;;;;;;4993740;28;20409;-60
2022/04/04 04:13:45;;;;;;;65.68;40.20;;;;;;;;;;4993736;28;20460;-59
2022/04/04 04:16:14;;;;;;;72.97;41.92;;;;;;;;;;4994014;28;20189;-60
2022/04/04 04:18:41;;;;;;;67.70;41.10;;;;;;;;;;4993182;28;20202;-59
2022/04/04 04:21:09;;;;;;;69.88;41.13;;;;;;;;;;4993317;28;20202;-59
2022/04/04 04:23:35;;;;;;;68.13;41.28;;;;;;;;;;4993515;28;20186;-59
2022/04/04 04:26:01;;;;;;;71.80;41.25;;;;;;;;;;4993643;28;20179;-58
2022/04/04 04:28:27;;;;;;;71.40;42.37;;;;;;;;;;4993517;28;20709;-59
2022/04/04 04:30:53;;;;;;;61.37;38.30;;;;;;;;;;4993352;28;20746;-59
2022/04/04 04:33:19;;;;;;;65.37;39.47;;;;;;;;;;4993394;28;20481;-59
2022/04/04 04:35:45;;;;;;;67.80;40.90;;;;;;;;;;4993471;28;20884;-59
2022/04/04 04:38:11;;;;;;;68.43;40.38;;;;;;;;;;4993383;28;20413;-58
2022/04/04 04:40:37;;;;;;;72.13;42.40;;;;;;;;;;4993126;28;20174;-59
2022/04/04 04:43:03;;;;;;;74.43;42.87;;;;;;;;;;4993147;28;20437;-58
2022/04/04 04:45:29;;;;;;;75.50;41.50;;;;;;;;;;4993133;28;20471;-59
2022/04/04 04:47:55;;;;;;;70.53;39.15;;;;;;;;;;4993315;28;20167;-58
2022/04/04 04:50:22;;;;;;;69.55;41.55;;;;;;;;;;4992874;28;20237;-59
2022/04/04 04:52:49;;;;;;;75.97;41.67;;;;;;;;;;4993092;28;20201;-59
2022/04/04 04:55:15;;;;;;;75.35;41.53;;;;;;;;;;4993092;28;20201;-59
2022/04/04 04:57:41;;;;;;;79.00;42.88;;;;;;;;;;4992927;28;20249;-59
2022/04/04 05:00:09;;;;;;;76.90;42.27;;;;;;;;;;4992795;28;20654;-58
2022/04/04 05:02:35;;;;;;;76.43;42.95;;;;;;;;;;4992877;28;20435;-59
2022/04/04 05:05:01;;;;;;;77.03;43.72;;;;;;;;;;4992795;28;20206;-59
2022/04/04 05:07:28;;;;;;;72.70;40.78;;;;;;;;;;4992832;28;20630;-59
2022/04/04 05:09:54;;;;;;;75.90;41.90;;;;;;;;;;4992701;28;20538;-58
2022/04/04 05:12:20;;;;;;;76.33;41.90;;;;;;;;;;4992529;28;20194;-59
2022/04/04 05:14:47;;;;;;;69.90;38.77;;;;;;;;;;4992690;28;20417;-59
2022/04/04 05:17:13;;;;;;;80.63;45.85;;;;;;;;;;4992666;28;20831;-59
2022/04/04 05:19:39;;;;;;;70.70;39.30;;;;;;;;;;4992485;28;20182;-58
2022/04/04 05:22:05;;;;;;;77.07;42.67;;;;;;;;;;4983586;28;20577;-57
2022/04/04 05:24:31;;;;;;;75.80;44.33;;;;;;;;;;4972902;28;20461;-59
2022/04/04 05:26:57;;;;;;;72.03;40.13;;;;;;;;;;4973047;28;20171;-58
2022/04/04 05:29:26;;;;;;;77.65;41.65;;;;;;;;;;4973072;28;20543;-59
2022/04/04 05:31:53;;;;;;;81.97;44.60;;;;;;;;;;4971893;28;20199;-59
2022/04/04 05:34:20;;;;;;;82.72;43.22;;;;;;;;;;4972986;28;20187;-57
2022/04/04 05:36:46;;;;;;;75.80;40.45;;;;;;;;;;4972920;28;20175;-60
2022/04/04 05:39:12;;;;;;;77.70;43.97;;;;;;;;;;4974169;28;20270;-57
2022/04/04 05:41:38;;;;;;;78.33;44.20;;;;;;;;;;4991044;28;20406;-59
2022/04/04 05:44:06;;;;;;;80.05;43.15;;;;;;;;;;4991748;28;21098;-58
2022/04/04 05:46:32;;;;;;;81.00;43.72;;;;;;;;;;4991840;28;20213;-59
2022/04/04 05:48:58;;;;;;;79.78;42.90;;;;;;;;;;4992168;28;20188;-59
2022/04/04 05:51:24;;;;;;;78.47;43.25;;;;;;;;;;4991812;28;20171;-59
2022/04/04 05:53:50;;;;;;;73.20;42.50;;;;;;;;;;4991731;28;20194;-60
2022/04/04 05:56:16;;;;;;;79.70;42.67;;;;;;;;;;4990962;28;20420;-59
2022/04/04 05:58:42;;;;;;;73.10;40.63;;;;;;;;;;4991884;28;20762;-58
2022/04/04 06:01:08;;;;;;;72.65;41.30;;;;;;;;;;4991458;28;20179;-59
2022/04/04 06:03:35;;;;;;;68.30;41.90;;;;;;;;;;4991675;28;20204;-58
2022/04/04 06:06:02;;;;;;;73.07;40.60;;;;;;;;;;4991904;28;20197;-59
2022/04/04 06:08:28;;;;;;;73.20;41.00;;;;;;;;;;4991830;28;20162;-58
2022/04/04 06:10:54;;;;;;;72.68;42.58;;;;;;;;;;4991622;28;20635;-57
2022/04/04 06:13:21;;;;;;;70.13;40.40;;;;;;;;;;4991864;28;20347;-57
2022/04/04 06:15:47;;;;;;;69.50;42.45;;;;;;;;;;4991792;28;20413;-57
2022/04/04 06:18:14;;;;;;;66.15;39.70;;;;;;;;;;4991757;28;20179;-59
2022/04/04 06:20:40;;;;;;;73.00;43.13;;;;;;;;;;4990330;28;20358;-59
2022/04/04 06:23:06;;;;;;;73.40;42.75;;;;;;;;;;5013614;28;20712;-58
2022/04/04 06:25:32;;;;;;;65.97;42.03;;;;;;;;;;4990425;28;20199;-58
2022/04/04 06:27:58;;;;;;;70.80;41.30;;;;;;;;;;4990214;28;20230;-58
2022/04/04 06:30:25;;;;;;;73.45;45.28;;;;;;;;;;4989625;28;20425;-59
2022/04/04 06:32:51;;;;;;;73.32;42.05;;;;;;;;;;4990719;28;20214;-59
2022/04/04 06:35:17;;;;;;;72.23;40.60;;;;;;;;;;4991387;28;20234;-58
2022/04/04 06:37:43;;;;;;;70.53;40.90;;;;;;;;;;4991312;28;20420;-59
2022/04/04 06:40:10;;;;;;;71.90;40.92;;;;;;;;;;4991578;28;20174;-59
2022/04/04 06:42:40;;;;;;;69.40;40.80;;;;;;;;;;4992650;28;20573;-59
2022/04/04 06:45:06;;;;;;;71.22;42.25;;;;;;;;;;4994086;28;20554;-59
2022/04/04 06:47:33;;;;;;;74.00;43.70;;;;;;;;;;4994141;28;20933;-59
2022/04/04 06:49:59;;;;;;;69.72;41.03;;;;;;;;;;4993924;28;20186;-58
2022/04/04 06:52:25;;;;;;;77.45;45.33;;;;;;;;;;4993779;28;20195;-58
2022/04/04 06:54:53;;;;;;;80.13;44.72;;;;;;;;;;4993969;28;20282;-59
2022/04/04 06:57:19;;;;;;;88.53;53.60;;;;;;;;;;4990588;28;20170;-59
2022/04/04 06:59:46;;;;;;;70.55;44.80;;;;;;;;;;4993247;28;20186;-52
2022/04/04 07:02:12;;;;;;;74.70;46.67;;;;;;;;;;4993053;28;20201;-60
2022/04/04 07:04:38;;;;;;;74.97;44.08;;;;;;;;;;4993770;28;20194;-59
2022/04/04 07:07:07;;;;;;;65.60;40.40;;;;;;;;;;4992213;28;20198;-59
2022/04/04 07:09:33;;;;;;;47.60;37.22;;;;;;;;;;4992327;28;20180;-58
2022/04/04 07:11:59;;;;;;;54.60;41.03;;;;;;;;;;4994346;28;20197;-57
2022/04/04 07:14:25;;;;;;;58.70;41.35;;;;;;;;;;4993622;28;20174;-59
2022/04/04 07:16:53;;;;;;;75.63;44.30;;;;;;;;;;4994502;28;20183;-58
2022/04/04 07:19:30;;;;;;;80.07;44.13;;;;;;;;;;4994187;28;20201;-59
2022/04/04 07:21:56;;;;;;;82.72;44.53;;;;;;;;;;4994496;28;20202;-59
2022/04/04 07:24:22;;;;;;;78.03;46.53;;;;;;;;;;4994537;28;20201;-58
2022/04/04 07:26:48;;;;;;;76.50;43.53;;;;;;;;;;4994577;28;20468;-59
2022/04/04 07:29:14;;;;;;;73.45;42.97;;;;;;;;;;4994427;28;20402;-58
2022/04/04 07:31:42;;;;;;;80.80;44.35;;;;;;;;;;4993522;28;20890;-55
2022/04/04 07:34:08;;;;;;;77.80;44.05;;;;;;;;;;4994469;28;20170;-59
2022/04/04 07:36:34;;;;;;;76.60;42.60;;;;;;;;;;4994351;28;20181;-59
2022/04/04 07:39:00;;;;;;;77.03;43.75;;;;;;;;;;4994334;28;20465;-56
2022/04/04 07:41:26;;;;;;;76.10;42.97;;;;;;;;;;4994165;28;20545;-56
2022/04/04 07:43:53;;;;;;;77.40;43.40;;;;;;;;;;4994026;28;21019;-58
2022/04/04 07:46:19;;;;;;;79.93;44.78;;;;;;;;;;4993996;28;20441;-59
2022/04/04 07:48:45;;;;;;;73.03;43.10;;;;;;;;;;4994212;28;20169;-59
2022/04/04 07:51:12;;;;;;;71.20;43.55;;;;;;;;;;4993826;28;20174;-59
2022/04/04 07:53:38;;;;;;;77.32;45.03;;;;;;;;;;4993319;28;20615;-58
2022/04/04 07:56:04;;;;;;;78.45;45.10;;;;;;;;;;4994009;28;20593;-57
2022/04/04 07:58:30;;;;;;;83.88;51.05;;;;;;;;;;4993543;28;20650;-59
2022/04/04 08:00:56;;;;;;;81.60;46.85;;;;;;;;;;4993758;28;20185;-59
2022/04/04 08:03:23;;;;;;;86.93;48.00;;;;;;;;;;4993380;28;20200;-58
2022/04/04 08:05:49;;;;;;;79.95;46.08;;;;;;;;;;4993541;28;20453;-59
2022/04/04 08:08:15;;;;;;;82.68;49.35;;;;;;;;;;4993606;28;20177;-57
2022/04/04 08:10:41;;;;;;;85.72;48.67;;;;;;;;;;4993468;28;20191;-58
2022/04/04 08:13:08;;;;;;;67.03;45.08;;;;;;;;;;4993559;28;20590;-58
2022/04/04 08:15:34;;;;;;;66.82;46.55;;;;;;;;;;4993490;28;20188;-58
2022/04/04 08:18:00;;;;;;;62.28;46.45;;;;;;;;;;4993548;28;20183;-57
2022/04/04 08:20:26;;;;;;;69.03;49.25;;;;;;;;;;4993092;28;20553;-58
2022/04/04 08:22:52;;;;;;;75.85;49.13;;;;;;;;;;4993373;28;20287;-58
2022/04/04 08:25:18;;;;;;;81.20;51.00;;;;;;;;;;4992228;28;20205;-56
2022/04/04 08:27:45;;;;;;;83.88;49.72;;;;;;;;;;4993378;28;20178;-56
2022/04/04 08:30:12;;;;;;;90.95;55.78;;;;;;;;;;4993130;28;20257;-59
2022/04/04 08:32:39;;;;;;;92.25;56.60;;;;;;;;;;4991469;28;20328;-57
2022/04/04 08:35:06;;;;;;;84.28;52.67;;;;;;;;;;4992295;28;20271;-59
2022/04/04 08:37:33;;;;;;;89.32;55.17;;;;;;;;;;4993220;28;20259;-59
2022/04/04 08:39:59;;;;;;;87.43;56.40;;;;;;;;;;4993122;28;20183;-53
2022/04/04 08:42:27;;;;;;;92.20;56.63;;;;;;;;;;4993030;28;20291;-59
2022/04/04 08:44:54;;;;;;;86.40;54.58;;;;;;;;;;4993059;28;20611;-59
2022/04/04 08:47:20;;;;;;;89.70;55.03;;;;;;;;;;4993159;28;20208;-60
2022/04/04 08:49:47;;;;;;;90.60;56.58;;;;;;;;;;4993068;28;20168;-60
2022/04/04 08:52:15;;;;;;;98.90;59.35;;;;;;;;;;4992741;28;20248;-60
2022/04/04 08:54:41;;;;;;;75.90;60.88;;;;;;;;;;4992786;28;20617;-59
2022/04/04 08:57:07;;;;;;;75.60;60.70;;;;;;;;;;4992882;28;20213;-58
2022/04/04 08:59:33;;;;;;;68.80;61.30;;;;;;;;;;4992785;28;20414;-60
2022/04/04 09:01:59;;;;;;;80.10;71.57;;;;;;;;;;4992604;28;20433;-59
2022/04/04 09:04:25;;;;;;;89.05;80.55;;;;;;;;;;4992650;28;20987;-59
2022/04/04 09:06:53;;;;;;;99.53;90.22;;;;;;;;;;4992767;28;20179;-57
2022/04/04 09:09:26;;;;;;;121.22;107.00;;;;;;;;;;4992576;28;20181;-59
2022/04/04 09:11:53;;;;;;;145.35;131.10;;;;;;;;;;4992366;28;20558;-58
2022/04/04 09:14:24;;;;;;;165.63;150.48;;;;;;;;;;4992626;28;20184;-57
2022/04/04 09:16:56;;;;;;;191.20;175.80;;;;;;;;;;4992652;28;20271;-57
2022/04/04 09:19:32;;;;;;;206.07;189.73;;;;;;;;;;4992499;28;20781;-58
2022/04/04 09:22:03;;;;;;;242.13;225.10;;;;;;;;;;4992085;28;20421;-58
2022/04/04 09:24:47;;;;;;;268.73;251.73;;;;;;;;;;4992340;28;20460;-59
2022/04/04 09:27:21;;;;;;;285.47;268.77;;;;;;;;;;4992368;28;20404;-58
2022/04/04 09:29:48;;;;;;;318.20;302.23;;;;;;;;;;4992323;28;20486;-58
2022/04/04 09:32:17;;;;;;;294.37;279.57;;;;;;;;;;4991891;28;20429;-57
2022/04/04 09:35:04;;;;;;;301.33;287.67;;;;;;;;;;4992480;28;20408;-58
2022/04/04 09:37:34;;;;;;;328.77;312.67;;;;;;;;;;4992310;28;20409;-61
2022/04/04 09:40:03;;;;;;;305.47;289.87;;;;;;;;;;4992120;28;21056;-58
2022/04/04 09:42:31;;;;;;;295.17;280.40;;;;;;;;;;4992124;28;20421;-57
2022/04/04 09:45:05;;;;;;;273.07;260.10;;;;;;;;;;4991981;28;20465;-58
2022/04/04 09:47:50;;;;;;;260.93;247.97;;;;;;;;;;4992357;28;20400;-59
2022/04/04 09:50:31;;;;;;;312.83;296.93;;;;;;;;;;4991954;28;20750;-60
2022/04/04 09:52:57;;;;;;;288.77;273.13;;;;;;;;;;4993017;28;20472;-59
2022/04/04 09:55:49;;;;;;;300.53;285.37;;;;;;;;;;4992132;28;20409;-59
2022/04/04 09:58:20;;;;;;;287.47;272.37;;;;;;;;;;4989385;28;20422;-59
2022/04/04 10:00:48;;;;;;;294.60;278.70;;;;;;;;;;4992278;28;20410;-58
2022/04/04 10:03:15;;;;;;;335.67;319.17;;;;;;;;;;4981124;28;20438;-58
2022/04/04 10:05:42;;;;;;;344.00;326.83;;;;;;;;;;4972663;28;20464;-61
2022/04/04 10:08:09;;;;;;;348.83;331.63;;;;;;;;;;4972440;28;20899;-60
2022/04/04 10:10:36;;;;;;;375.43;358.10;;;;;;;;;;4972227;28;20893;-58
2022/04/04 10:13:02;;;;;;;348.93;332.53;;;;;;;;;;4980891;28;20466;-59
2022/04/04 10:15:28;;;;;;;337.50;322.43;;;;;;;;;;4989082;28;20564;-60
2022/04/04 10:17:55;;;;;;;336.33;320.57;;;;;;;;;;4992132;28;20951;-60
2022/04/04 10:20:21;;;;;;;324.77;310.37;;;;;;;;;;4995650;28;20413;-57
2022/04/04 10:22:49;;;;;;;328.13;313.57;;;;;;;;;;4995698;28;20411;-58
2022/04/04 10:25:16;;;;;;;335.50;320.70;;;;;;;;;;4995678;28;20460;-58
2022/04/04 10:27:49;;;;;;;328.50;313.87;;;;;;;;;;4995780;28;20968;-60
2022/04/04 10:30:16;;;;;;;314.10;299.33;;;;;;;;;;4995503;28;20401;-58
2022/04/04 10:32:53;;;;;;;275.93;262.60;;;;;;;;;;4995322;28;20442;-60
2022/04/04 10:35:20;;;;;;;251.27;238.73;;;;;;;;;;4995666;28;20416;-57
2022/04/04 10:37:46;;;;;;;200.33;190.00;;;;;;;;;;4995570;28;20417;-59
2022/04/04 10:40:19;;;;;;;201.70;190.67;;;;;;;;;;4995205;28;20496;-57
2022/04/04 10:42:46;;;;;;;203.87;191.57;;;;;;;;;;4995347;28;20496;-60
2022/04/04 10:45:13;;;;;;;200.93;188.83;;;;;;;;;;4995091;28;20457;-60
2022/04/04 10:47:40;;;;;;;213.57;201.30;;;;;;;;;;4995448;28;20509;-57
2022/04/04 10:50:23;;;;;;;232.53;219.00;;;;;;;;;;4995244;28;20410;-59
2022/04/04 10:52:49;;;;;;;248.63;235.07;;;;;;;;;;4995307;28;20465;-60
2022/04/04 10:55:27;;;;;;;278.73;264.13;;;;;;;;;;4995231;28;20473;-60
2022/04/04 10:57:58;;;;;;;290.40;275.03;;;;;;;;;;4995080;28;20907;-60
2022/04/04 11:00:34;;;;;;;276.23;261.97;;;;;;;;;;4995001;28;20464;-60
2022/04/04 11:03:01;;;;;;;274.33;259.53;;;;;;;;;;4995110;28;20810;-61
2022/04/04 11:08:13;;;;;;;275.77;262.10;;;;;;;;;;4994975;28;20417;-60
2022/04/04 11:10:48;;;;;;;267.70;254.33;;;;;;;;;;4994930;28;20927;-60
2022/04/04 11:13:18;;;;;;;295.60;280.30;;;;;;;;;;4995088;28;20943;-60
2022/04/04 11:15:55;;;;;;;288.83;273.23;;;;;;;;;;4994862;28;20947;-59
2022/04/04 11:18:21;;;;;;;327.60;311.00;;;;;;;;;;4994787;28;20823;-59
2022/04/04 11:20:50;;;;;;;304.50;289.50;;;;;;;;;;4994632;28;20462;-60
2022/04/04 11:23:16;;;;;;;307.63;292.00;;;;;;;;;;4994606;28;20440;-60
2022/04/04 11:25:52;;;;;;;279.47;265.90;;;;;;;;;;4994959;28;20463;-58
2022/04/04 11:28:20;;;;;;;252.63;238.93;;;;;;;;;;4994037;28;20425;-60
2022/04/04 11:30:47;;;;;;;221.30;208.40;;;;;;;;;;4993859;28;20416;-60
2022/04/04 11:33:22;;;;;;;219.20;207.57;;;;;;;;;;4994654;28;20449;-58
2022/04/04 11:35:48;;;;;;;222.57;210.67;;;;;;;;;;4994701;28;20505;-60
2022/04/04 11:38:17;;;;;;;224.27;213.33;;;;;;;;;;4994555;28;20444;-61
2022/04/04 11:40:45;;;;;;;278.77;264.27;;;;;;;;;;4994411;28;20414;-61
2022/04/04 11:43:12;;;;;;;272.37;258.30;;;;;;;;;;4994213;28;20434;-61
2022/04/04 11:45:41;;;;;;;287.93;273.33;;;;;;;;;;4994236;28;20453;-60
2022/04/04 11:48:10;;;;;;;272.03;258.00;;;;;;;;;;4994551;28;20898;-60
2022/04/04 11:50:37;;;;;;;248.40;234.87;;;;;;;;;;4994014;28;20402;-60
2022/04/04 11:53:04;;;;;;;223.60;211.30;;;;;;;;;;4994162;28;20434;-58
2022/04/04 11:55:31;;;;;;;244.10;230.90;;;;;;;;;;4994176;28;20435;-60
2022/04/04 11:57:58;;;;;;;242.33;229.83;;;;;;;;;;4994053;28;20424;-60
2022/04/04 12:00:30;;;;;;;239.27;226.87;;;;;;;;;;4993859;28;20510;-60
2022/04/04 12:02:56;;;;;;;212.37;201.20;;;;;;;;;;4993554;28;20441;-59
2022/04/04 12:05:23;;;;;;;168.57;159.43;;;;;;;;;;4993821;28;20576;-60
2022/04/04 12:07:52;;;;;;;151.10;142.13;;;;;;;;;;4993895;28;20493;-60
2022/04/04 12:10:25;;;;;;;154.50;144.60;;;;;;;;;;4993654;28;20510;-60
2022/04/04 12:12:58;;;;;;;144.90;134.73;;;;;;;;;;4993777;28;20197;-57
2022/04/04 12:15:31;;;;;;;135.00;125.90;;;;;;;;;;4993795;28;20479;-60
2022/04/04 12:18:01;;;;;;;123.05;114.75;;;;;;;;;;4985935;28;20559;-58
2022/04/04 12:20:44;;;;;;;119.18;110.25;;;;;;;;;;4973966;28;20183;-60
2022/04/04 12:25:57;;;;;;;111.60;102.47;;;;;;;;;;4974248;28;20716;-58
2022/04/04 12:28:25;;;;;;;106.75;98.05;;;;;;;;;;4973494;28;20175;-60
2022/04/04 12:30:51;;;;;;;100.25;91.03;;;;;;;;;;4976493;28;20183;-58
2022/04/04 12:33:18;;;;;;;100.57;91.78;;;;;;;;;;4992445;28;20218;-59
2022/04/04 12:35:44;;;;;;;105.15;95.43;;;;;;;;;;4993235;28;20206;-60
2022/04/04 12:38:10;;;;;;;104.90;95.33;;;;;;;;;;4993332;28;20646;-56
2022/04/04 12:40:39;;;;;;;102.80;93.75;;;;;;;;;;4992790;28;20410;-57
2022/04/04 12:43:07;;;;;;;95.55;87.05;;;;;;;;;;4992714;28;20748;-59
2022/04/04 12:45:33;;;;;;;99.20;89.50;;;;;;;;;;4993020;28;20206;-58
2022/04/04 12:48:00;;;;;;;96.10;87.15;;;;;;;;;;4993005;28;20174;-57
2022/04/04 12:50:37;;;;;;;102.90;92.70;;;;;;;;;;4993181;28;20174;-57
2022/04/04 12:53:03;;;;;;;101.15;90.93;;;;;;;;;;4992323;28;20229;-59
2022/04/04 12:55:29;;;;;;;96.93;87.25;;;;;;;;;;4988971;28;20298;-56
2022/04/04 12:57:56;;;;;;;96.60;87.03;;;;;;;;;;4988995;28;20268;-58
2022/04/04 13:00:27;;;;;;;99.43;89.68;;;;;;;;;;4991220;28;20738;-56
2022/04/04 13:02:53;;;;;;;98.03;87.60;;;;;;;;;;4991598;28;20599;-54
2022/04/04 13:05:19;;;;;;;95.38;85.82;;;;;;;;;;4991475;28;20654;-59
2022/04/04 13:07:55;;;;;;;90.30;81.00;;;;;;;;;;4991420;28;20205;-59
2022/04/04 13:10:26;;;;;;;98.80;88.78;;;;;;;;;;4989676;28;20931;-59
2022/04/04 13:13:08;;;;;;;89.38;80.15;;;;;;;;;;4991297;28;20252;-59
2022/04/04 13:15:42;;;;;;;90.72;81.30;;;;;;;;;;4987489;28;20174;-58
2022/04/04 13:18:10;;;;;;;95.75;85.35;;;;;;;;;;4991582;28;20183;-60
2022/04/04 13:20:36;;;;;;;96.30;84.82;;;;;;;;;;4988887;28;20272;-57
2022/04/04 13:23:03;;;;;;;100.00;88.83;;;;;;;;;;4991855;28;20241;-61
2022/04/04 13:25:30;;;;;;;105.15;89.50;;;;;;;;;;5014112;28;20865;-58
2022/04/04 13:27:56;;;;;;;109.93;87.88;;;;;;;;;;4991478;28;20162;-58
2022/04/04 13:30:22;;;;;;;111.50;97.13;;;;;;;;;;4990914;28;20551;-58
2022/04/04 13:32:48;;;;;;;108.88;91.10;;;;;;;;;;4991042;28;20433;-58
2022/04/04 13:35:14;;;;;;;102.27;90.23;;;;;;;;;;4988997;28;20186;-60
2022/04/04 13:37:40;;;;;;;109.83;90.77;;;;;;;;;;4990734;28;20417;-56
2022/04/04 13:40:07;;;;;;;100.82;88.75;;;;;;;;;;4990711;28;20445;-55
2022/04/04 13:42:33;;;;;;;104.85;89.22;;;;;;;;;;4990885;28;20835;-59
2022/04/04 13:44:59;;;;;;;110.18;87.55;;;;;;;;;;4990832;28;20252;-57
2022/04/04 13:47:25;;;;;;;108.57;84.33;;;;;;;;;;4990357;28;20205;-58
2022/04/04 13:49:51;;;;;;;105.70;82.13;;;;;;;;;;4990754;28;20962;-60
2022/04/04 13:52:17;;;;;;;108.43;83.87;;;;;;;;;;4989801;28;20424;-57
2022/04/04 13:54:43;;;;;;;102.10;84.30;;;;;;;;;;4990714;28;20410;-60
2022/04/04 13:57:09;;;;;;;110.68;87.65;;;;;;;;;;4990772;28;20418;-57
2022/04/04 13:59:35;;;;;;;110.45;87.55;;;;;;;;;;4990660;28;20258;-54
2022/04/04 14:02:01;;;;;;;105.30;84.77;;;;;;;;;;4990472;28;20566;-56
2022/04/04 14:04:27;;;;;;;103.90;84.63;;;;;;;;;;4990783;28;21047;-57
2022/04/04 14:06:53;;;;;;;97.00;81.47;;;;;;;;;;4992150;28;20177;-59
2022/04/04 14:09:19;;;;;;;102.00;82.53;;;;;;;;;;4992088;28;20885;-60
2022/04/04 14:11:45;;;;;;;98.97;78.87;;;;;;;;;;4991988;28;20406;-60
2022/04/04 14:14:12;;;;;;;103.72;84.97;;;;;;;;;;4992214;28;20847;-59
2022/04/04 14:16:39;;;;;;;100.32;81.15;;;;;;;;;;4990570;28;20178;-59
2022/04/04 14:19:05;;;;;;;94.75;78.47;;;;;;;;;;4990673;28;20179;-59
2022/04/04 14:21:31;;;;;;;92.60;77.88;;;;;;;;;;4990335;28;20166;-59